Time;durP1;ratioP1;P1;durP2;ratioP2;P2;SDS_P1;SDS_P2;PMS_P1;PMS_P2;Temp;Humidity;BMP_temperature;BMP_pressure;BME280_temperature;BME280_humidity;BME280_pressure;Samples;Min_cycle;Max_cycle;Signal;HPM_P1;HPM_P2
2023/12/07 00:00:09;;;;;;;;;;;;;;;-1.70;100.00;101916.88;5078805;28;20542;-74
2023/12/07 00:02:34;;;;;;;;;;;;;;;-1.65;100.00;101920.56;5080005;28;19919;-74
2023/12/07 00:04:59;;;;;;;;;;;;;;;-1.61;100.00;101914.81;5079066;28;20030;-74
2023/12/07 00:07:25;;;;;;;;;;;;;;;-1.61;100.00;101917.38;5057133;28;19924;-75
2023/12/07 00:09:50;;;;;;;;;;;;;;;-1.58;100.00;101909.84;5068709;28;20368;-75
2023/12/07 00:12:16;;;;;;;;;;;;;;;-1.52;100.00;101917.91;5067804;28;19924;-75
2023/12/07 00:14:41;;;;;;;;;;;;;;;-1.52;100.00;101906.72;5096268;28;19951;-74
2023/12/07 00:17:06;;;;;;;;;;;;;;;-1.52;100.00;101912.75;5072287;28;19920;-74
2023/12/07 00:19:32;;;;;;;;;;;;;;;-1.53;100.00;101907.53;5060906;28;19926;-74
2023/12/07 00:21:59;;;;;;;;;;;;;;;-1.57;100.00;101907.38;5081104;28;19916;-74
2023/12/07 00:24:25;;;;;;;;;;;;;;;-1.67;100.00;101911.91;5083993;28;19950;-75
2023/12/07 00:26:51;;;;;;;;;;;;;;;-1.69;100.00;101908.38;5077163;28;20370;-74
2023/12/07 00:29:17;;;;;;;;;;;;;;;-1.71;100.00;101915.09;5079396;28;19916;-74
2023/12/07 00:31:43;;;;;;;;;;;;;;;-1.77;100.00;101907.94;5075097;28;20266;-75
2023/12/07 00:34:10;;;;;;;;;;;;;;;-1.86;100.00;101907.44;5076600;28;19947;-74
2023/12/07 00:36:35;;;;;;;;;;;;;;;-2.00;100.00;101897.25;5085973;28;19927;-74
2023/12/07 00:39:01;;;;;;;;;;;;;;;-2.07;100.00;101912.25;5065256;28;19920;-75
2023/12/07 00:41:26;;;;;;;;;;;;;;;-2.15;100.00;101902.41;5053111;28;19924;-75
2023/12/07 00:43:52;;;;;;;;;;;;;;;-2.25;100.00;101899.25;5056768;28;19962;-74
2023/12/07 00:46:46;;;;;;;;;;;;;;;-2.35;100.00;101905.53;5074465;28;20509;-74
2023/12/07 00:49:12;;;;;;;;;;;;;;;-2.43;100.00;101910.19;5074018;28;19977;-74
2023/12/07 00:51:39;;;;;;;;;;;;;;;-2.45;100.00;101911.81;5059247;28;19924;-74
2023/12/07 00:54:05;;;;;;;;;;;;;;;-2.45;100.00;101911.81;5084133;28;20356;-74
2023/12/07 00:56:30;;;;;;;;;;;;;;;-2.50;100.00;101919.25;5061689;28;19925;-74
2023/12/07 00:58:55;;;;;;;;;;;;;;;-2.56;100.00;101918.88;5077141;28;19928;-74
2023/12/07 01:01:21;;;;;;;;;;;;;;;-2.65;100.00;101911.50;5058715;28;19924;-74
2023/12/07 01:03:46;;;;;;;;;;;;;;;-2.71;100.00;101907.72;5058134;28;19956;-74
2023/12/07 01:06:12;;;;;;;;;;;;;;;-2.76;100.00;101915.13;5070774;28;20276;-74
2023/12/07 01:08:37;;;;;;;;;;;;;;;-2.79;100.00;101913.28;5054710;28;20333;-74
2023/12/07 01:11:03;;;;;;;;;;;;;;;-2.83;100.00;101919.00;5087248;28;20381;-74
2023/12/07 01:13:29;;;;;;;;;;;;;;;-2.85;100.00;101919.72;5053769;28;19924;-74
2023/12/07 01:15:55;;;;;;;;;;;;;;;-2.87;100.00;101911.94;5082223;28;19958;-74
2023/12/07 01:18:20;;;;;;;;;;;;;;;-2.85;100.00;101924.84;5072953;28;19931;-75
2023/12/07 01:20:45;;;;;;;;;;;;;;;-2.76;100.00;101921.94;5058701;28;19928;-76
2023/12/07 01:23:17;;;;;;;;;;;;;;;-2.70;100.00;101925.78;5070133;28;19924;-74
2023/12/07 01:25:42;;;;;;;;;;;;;;;-2.61;100.00;101920.28;5073926;28;19924;-74
2023/12/07 01:28:07;;;;;;;;;;;;;;;-2.54;100.00;101918.94;5074364;28;20371;-74
2023/12/07 01:30:33;;;;;;;;;;;;;;;-2.53;100.00;101919.06;5047893;28;19977;-74
2023/12/07 01:32:58;;;;;;;;;;;;;;;-2.58;100.00;101919.59;5072933;28;19920;-74
2023/12/07 01:35:24;;;;;;;;;;;;;;;-2.65;100.00;101920.91;5067582;28;19923;-74
2023/12/07 01:37:50;;;;;;;;;;;;;;;-2.68;100.00;101929.28;5057522;28;19931;-76
2023/12/07 01:40:15;;;;;;;;;;;;;;;-2.68;100.00;101933.56;5068281;28;19925;-74
2023/12/07 01:42:48;;;;;;;;;;;;;;;-2.70;100.00;101930.00;5068823;28;19920;-74
2023/12/07 01:45:17;;;;;;;;;;;;;;;-2.71;100.00;101933.38;5070781;28;19920;-74
2023/12/07 01:47:43;;;;;;;;;;;;;;;-2.72;100.00;101936.72;5069893;28;19920;-75
2023/12/07 01:50:09;;;;;;;;;;;;;;;-2.73;100.00;101929.81;5070965;28;19912;-74
2023/12/07 01:52:42;;;;;;;;;;;;;;;-2.81;100.00;101929.38;5049158;28;19921;-74
2023/12/07 01:55:08;;;;;;;;;;;;;;;-2.84;100.00;101932.63;5070563;28;19924;-74
2023/12/07 01:57:35;;;;;;;;;;;;;;;-2.88;100.00;101929.78;5086626;28;19934;-74
2023/12/07 02:00:00;;;;;;;;;;;;;;;-2.93;100.00;101929.53;5066438;28;19923;-74
2023/12/07 02:02:26;;;;;;;;;;;;;;;-2.97;100.00;101927.56;5086078;28;19931;-75
2023/12/07 02:04:51;;;;;;;;;;;;;;;-3.01;100.00;101928.16;5073162;28;20399;-76
2023/12/07 02:07:17;;;;;;;;;;;;;;;-3.02;100.00;101936.63;5072808;28;19963;-75
2023/12/07 02:09:43;;;;;;;;;;;;;;;-3.01;100.00;101938.41;5090452;28;19912;-75
2023/12/07 02:12:08;;;;;;;;;;;;;;;-3.07;100.00;101927.78;5059631;28;19952;-75
2023/12/07 02:14:34;;;;;;;;;;;;;;;-3.09;100.00;101927.66;5069499;28;20369;-73
2023/12/07 02:17:04;;;;;;;;;;;;;;;-3.09;100.00;101925.09;5068658;28;19928;-74
2023/12/07 02:19:29;;;;;;;;;;;;;;;-3.08;100.00;101926.00;5074554;28;19954;-76
2023/12/07 02:21:59;;;;;;;;;;;;;;;-3.07;100.00;101925.22;5074627;28;19988;-76
2023/12/07 02:24:27;;;;;;;;;;;;;;;-3.06;100.00;101930.44;5081513;28;20385;-76
2023/12/07 02:26:52;;;;;;;;;;;;;;;-3.04;100.00;101935.66;5069224;28;20018;-76
2023/12/07 02:29:17;;;;;;;;;;;;;;;-3.03;100.00;101930.63;5063462;28;20014;-75
2023/12/07 02:31:44;;;;;;;;;;;;;;;-3.03;100.00;101929.72;5069659;28;19924;-74
2023/12/07 02:34:09;;;;;;;;;;;;;;;-3.03;100.00;101934.84;5074443;28;19951;-73
2023/12/07 02:36:38;;;;;;;;;;;;;;;-3.03;100.00;101935.75;5078971;28;20490;-74
2023/12/07 02:39:05;;;;;;;;;;;;;;;-3.01;100.00;101936.72;5081041;28;20434;-74
2023/12/07 02:41:31;;;;;;;;;;;;;;;-3.01;100.00;101933.28;5069747;28;20051;-74
2023/12/07 02:43:57;;;;;;;;;;;;;;;-3.01;100.00;101938.41;5069376;28;19921;-74
2023/12/07 02:46:23;;;;;;;;;;;;;;;-2.99;100.00;101936.81;5053710;28;19931;-74
2023/12/07 02:48:48;;;;;;;;;;;;;;;-2.93;100.00;101934.66;5052636;28;20298;-74
2023/12/07 02:51:13;;;;;;;;;;;;;;;-2.91;100.00;101933.06;5053432;28;19932;-74
2023/12/07 02:53:38;;;;;;;;;;;;;;;-2.90;100.00;101929.69;5070149;28;19940;-74
2023/12/07 02:56:04;;;;;;;;;;;;;;;-2.86;100.00;101923.97;5061204;28;19925;-74
2023/12/07 02:58:29;;;;;;;;;;;;;;;-2.80;100.00;101921.75;5044986;28;19925;-74
2023/12/07 03:00:55;;;;;;;;;;;;;;;-2.72;100.00;101926.47;5076998;28;19917;-74
2023/12/07 03:03:21;;;;;;;;;;;;;;;-2.61;100.00;101917.72;5075576;28;19924;-74
2023/12/07 03:05:46;;;;;;;;;;;;;;;-2.49;100.00;101920.13;5080097;28;19962;-74
2023/12/07 03:08:12;;;;;;;;;;;;;;;-2.40;100.00;101922.34;5053516;28;19963;-74
2023/12/07 03:10:37;;;;;;;;;;;;;;;-2.32;100.00;101923.69;5052690;28;19923;-75
2023/12/07 03:13:02;;;;;;;;;;;;;;;-2.19;100.00;101927.84;5060637;28;20366;-75
2023/12/07 03:15:27;;;;;;;;;;;;;;;-2.06;100.00;101932.00;5069240;28;19922;-74
2023/12/07 03:17:53;;;;;;;;;;;;;;;-2.02;100.00;101927.13;5070712;28;19921;-74
2023/12/07 03:20:18;;;;;;;;;;;;;;;-1.98;100.00;101931.63;5079084;28;19920;-74
2023/12/07 03:22:44;;;;;;;;;;;;;;;-1.97;100.00;101932.50;5069309;28;19920;-74
2023/12/07 03:25:10;;;;;;;;;;;;;;;-1.95;100.00;101936.94;5052955;28;19936;-74
2023/12/07 03:27:35;;;;;;;;;;;;;;;-1.94;100.00;101935.25;5069832;28;19920;-74
2023/12/07 03:30:00;;;;;;;;;;;;;;;-1.93;100.00;101940.47;5047505;28;19921;-74
2023/12/07 03:32:26;;;;;;;;;;;;;;;-1.93;100.00;101942.16;5054204;28;19917;-74
2023/12/07 03:34:51;;;;;;;;;;;;;;;-1.92;100.00;101944.81;5078031;28;19931;-74
2023/12/07 03:37:16;;;;;;;;;;;;;;;-1.91;100.00;101940.59;5056212;28;19928;-74
2023/12/07 03:39:42;;;;;;;;;;;;;;;-1.90;100.00;101944.91;5049367;28;19985;-74
2023/12/07 03:42:08;;;;;;;;;;;;;;;-1.86;100.00;101941.72;5080538;28;19916;-74
2023/12/07 03:44:33;;;;;;;;;;;;;;;-1.86;100.00;101943.41;5074950;28;19916;-74
2023/12/07 03:46:59;;;;;;;;;;;;;;;-1.83;100.00;101944.44;5072825;28;20378;-74
2023/12/07 03:49:24;;;;;;;;;;;;;;;-1.83;100.00;101936.75;5063543;28;20412;-74
2023/12/07 03:51:50;;;;;;;;;;;;;;;-1.84;100.00;101945.28;5080224;28;19946;-74
2023/12/07 03:54:15;;;;;;;;;;;;;;;-1.83;100.00;101947.03;5064040;28;19935;-74
2023/12/07 03:56:40;;;;;;;;;;;;;;;-1.80;100.00;101952.34;5078348;28;20448;-74
2023/12/07 03:59:06;;;;;;;;;;;;;;;-1.72;100.00;101949.31;5061048;28;19920;-74
2023/12/07 04:01:34;;;;;;;;;;;;;;;-1.77;100.00;101951.63;5074650;28;19916;-74
2023/12/07 04:04:00;;;;;;;;;;;;;;;-1.78;100.00;101961.03;5061654;28;20325;-74
2023/12/07 04:06:26;;;;;;;;;;;;;;;-1.72;100.00;101964.72;5078949;28;19924;-74
2023/12/07 04:08:52;;;;;;;;;;;;;;;-1.69;100.00;101965.81;5074519;28;20388;-74
2023/12/07 04:11:18;;;;;;;;;;;;;;;-1.71;100.00;101967.41;5091940;28;19912;-74
2023/12/07 04:13:43;;;;;;;;;;;;;;;-1.76;100.00;101977.41;5077941;28;19916;-75
2023/12/07 04:16:09;;;;;;;;;;;;;;;-1.77;100.00;101973.09;5079829;28;19916;-74
2023/12/07 04:18:34;;;;;;;;;;;;;;;-1.79;100.00;101972.09;5073068;28;19912;-74
2023/12/07 04:20:59;;;;;;;;;;;;;;;-1.73;100.00;101973.25;5079557;28;19958;-74
2023/12/07 04:23:25;;;;;;;;;;;;;;;-1.76;100.00;101968.81;5058811;28;20077;-74
2023/12/07 04:25:50;;;;;;;;;;;;;;;-1.63;100.00;101972.97;5071951;28;19916;-74
2023/12/07 04:28:15;;;;;;;;;;;;;;;-1.77;100.00;101973.09;5067117;28;19950;-75
2023/12/07 04:30:41;;;;;;;;;;;;;;;-1.79;100.00;101969.53;5055800;28;19966;-75
2023/12/07 04:33:06;;;;;;;;;;;;;;;-1.80;100.00;101977.16;5074155;28;19923;-76
2023/12/07 04:35:31;;;;;;;;;;;;;;;-1.80;100.00;101983.16;5073141;28;19981;-75
2023/12/07 04:37:57;;;;;;;;;;;;;;;-1.79;100.00;101982.38;5073090;28;19917;-74
2023/12/07 04:40:24;;;;;;;;;;;;;;;-1.78;100.00;101980.69;5065806;28;19920;-74
2023/12/07 04:42:49;;;;;;;;;;;;;;;-1.67;100.00;101979.59;5092026;28;19912;-75
2023/12/07 04:45:14;;;;;;;;;;;;;;;-1.67;100.00;101971.91;5073784;28;20031;-75
2023/12/07 04:47:40;;;;;;;;;;;;;;;-1.69;100.00;101970.06;5073080;28;20427;-75
2023/12/07 04:50:08;;;;;;;;;;;;;;;-1.74;100.00;101972.34;5071879;28;19920;-75
2023/12/07 04:52:33;;;;;;;;;;;;;;;-1.73;100.00;101980.97;5075198;28;19966;-75
2023/12/07 04:54:59;;;;;;;;;;;;;;;-1.72;100.00;101980.16;5063220;28;19924;-75
2023/12/07 04:57:24;;;;;;;;;;;;;;;-1.72;100.00;101978.47;5072782;28;19958;-75
2023/12/07 04:59:52;;;;;;;;;;;;;;;-1.59;100.00;101980.06;5057355;28;20342;-75
2023/12/07 05:02:17;;;;;;;;;;;;;;;-1.58;100.00;101981.81;5074545;28;19982;-75
2023/12/07 05:04:43;;;;;;;;;;;;;;;-1.53;100.00;101979.53;5044586;28;19925;-75
2023/12/07 05:07:08;;;;;;;;;;;;;;;-1.51;100.00;101975.34;5080844;28;19916;-75
2023/12/07 05:09:34;;;;;;;;;;;;;;;-1.53;100.00;101966.66;5071614;28;19924;-74
2023/12/07 05:11:59;;;;;;;;;;;;;;;-1.58;100.00;101964.72;5074432;28;19920;-75
2023/12/07 05:14:24;;;;;;;;;;;;;;;-1.65;100.00;101960.03;5082610;28;19982;-75
2023/12/07 05:16:53;;;;;;;;;;;;;;;-1.65;100.00;101961.69;5054708;28;19931;-75
2023/12/07 05:19:22;;;;;;;;;;;;;;;-1.75;100.00;101953.50;5066308;28;20011;-74
2023/12/07 05:21:47;;;;;;;;;;;;;;;-1.76;100.00;101953.41;5071228;28;20327;-75
2023/12/07 05:24:12;;;;;;;;;;;;;;;-1.70;100.00;101960.56;5071651;28;19920;-74
2023/12/07 05:26:40;;;;;;;;;;;;;;;-1.80;100.00;101965.19;5075900;28;19923;-74
2023/12/07 05:29:05;;;;;;;;;;;;;;;-1.84;100.00;101960.69;5127546;22;19928;-74
2023/12/07 05:31:31;;;;;;;;;;;;;;;-1.81;100.00;101959.97;5074717;28;19927;-74
2023/12/07 05:33:56;;;;;;;;;;;;;;;-1.73;100.00;101962.97;5075280;28;19916;-76
2023/12/07 05:36:21;;;;;;;;;;;;;;;-1.79;100.00;101956.69;5077851;28;19959;-75
2023/12/07 05:38:47;;;;;;;;;;;;;;;-1.64;100.00;101961.81;5061905;28;20287;-74
2023/12/07 05:41:12;;;;;;;;;;;;;;;-1.57;100.00;101961.34;5056067;28;19934;-73
2023/12/07 05:43:43;;;;;;;;;;;;;;;-1.68;100.00;101952.16;5081772;28;19932;-74
2023/12/07 05:46:08;;;;;;;;;;;;;;;-1.58;100.00;101948.38;5065410;28;19955;-74
2023/12/07 05:48:33;;;;;;;;;;;;;;;-1.69;100.00;101945.25;5059106;28;19959;-74
2023/12/07 05:50:59;;;;;;;;;;;;;;;-1.74;100.00;101951.78;5088177;28;19931;-75
2023/12/07 05:53:24;;;;;;;;;;;;;;;-1.73;100.00;101945.88;5058184;28;19935;-74
2023/12/07 05:55:50;;;;;;;;;;;;;;;-1.80;100.00;101949.75;5070463;28;19974;-75
2023/12/07 05:58:17;;;;;;;;;;;;;;;-1.84;100.00;101944.38;5072572;28;19928;-76
2023/12/07 06:00:43;;;;;;;;;;;;;;;-1.70;100.00;101940.00;5056169;28;19932;-74
2023/12/07 06:03:09;;;;;;;;;;;;;;;-1.72;100.00;101939.03;5088222;28;19921;-74
2023/12/07 06:05:37;;;;;;;;;;;;;;;-1.81;100.00;101932.59;5087502;28;19994;-75
2023/12/07 06:08:03;;;;;;;;;;;;;;;-1.72;100.00;101936.47;5072778;28;20261;-75
2023/12/07 06:10:28;;;;;;;;;;;;;;;-1.68;100.00;101935.84;5057089;28;19934;-74
2023/12/07 06:12:55;;;;;;;;;;;;;;;-1.72;100.00;101939.03;5087942;28;19924;-74
2023/12/07 06:15:20;;;;;;;;;;;;;;;-1.79;100.00;101941.25;5070616;28;20007;-74
2023/12/07 06:17:45;;;;;;;;;;;;;;;-1.77;100.00;101937.13;5071142;28;20291;-74
2023/12/07 06:20:11;;;;;;;;;;;;;;;-1.69;100.00;101941.78;5070668;28;19917;-74
2023/12/07 06:22:37;;;;;;;;;;;;;;;-1.80;100.00;101947.19;5056263;28;19924;-73
2023/12/07 06:25:03;;;;;;;;;;;;;;;-1.61;100.00;101956.84;5078173;28;19971;-74
2023/12/07 06:27:28;;;;;;;;;;;;;;;-1.73;100.00;101948.44;5058833;28;19960;-74
2023/12/07 06:29:53;;;;;;;;;;;;;;;-1.70;100.00;101950.28;5049938;28;19935;-75
2023/12/07 06:32:19;;;;;;;;;;;;;;;-1.75;100.00;101955.19;5077823;28;19917;-75
2023/12/07 06:34:44;;;;;;;;;;;;;;;-1.68;100.00;101958.97;5053382;28;19927;-74
2023/12/07 06:37:10;;;;;;;;;;;;;;;-1.66;100.00;101965.09;5053422;28;19966;-74
2023/12/07 06:39:35;;;;;;;;;;;;;;;-1.73;100.00;101957.84;5071072;28;20019;-74
2023/12/07 06:42:01;;;;;;;;;;;;;;;-1.66;100.00;101957.38;5054095;28;20015;-73
2023/12/07 06:44:26;;;;;;;;;;;;;;;-1.58;100.00;101948.38;5070347;28;20019;-74
2023/12/07 06:46:51;;;;;;;;;;;;;;;-1.57;100.00;101955.31;5090216;28;19924;-74
2023/12/07 06:49:17;;;;;;;;;;;;;;;-1.42;100.00;101943.31;5057064;28;19931;-74
2023/12/07 06:51:42;;;;;;;;;;;;;;;-1.51;100.00;101950.50;5054079;28;20011;-74
2023/12/07 06:54:08;;;;;;;;;;;;;;;-1.55;100.00;101946.03;5061557;28;19962;-75
2023/12/07 06:56:34;;;;;;;;;;;;;;;-1.51;100.00;101950.50;5088209;28;19931;-74
2023/12/07 06:59:00;;;;;;;;;;;;;;;-1.41;100.00;101941.63;5073524;28;19927;-74
2023/12/07 07:01:25;;;;;;;;;;;;;;;-1.46;100.00;101948.22;5060550;28;19924;-74
2023/12/07 07:03:51;;;;;;;;;;;;;;;-1.46;100.00;101938.78;5070438;28;20280;-74
2023/12/07 07:06:16;;;;;;;;;;;;;;;-1.53;100.00;101936.69;5069718;28;20253;-74
2023/12/07 07:08:42;;;;;;;;;;;;;;;-1.57;100.00;101933.09;5087079;28;19920;-74
2023/12/07 07:11:13;;;;;;;;;;;;;;;-1.52;100.00;101932.41;5052824;28;19932;-73
2023/12/07 07:13:41;;;;;;;;;;;;;;;-1.55;100.00;101921.97;5070326;28;20456;-74
2023/12/07 07:16:07;;;;;;;;;;;;;;;-1.50;100.00;101931.72;5087358;28;19966;-74
2023/12/07 07:18:35;;;;;;;;;;;;;;;-1.42;100.00;101929.59;5069910;28;19952;-74
2023/12/07 07:21:00;;;;;;;;;;;;;;;-1.50;100.00;101925.69;5087723;28;19920;-74
2023/12/07 07:23:26;;;;;;;;;;;;;;;-1.34;100.00;101930.84;5057501;28;20009;-74
2023/12/07 07:25:51;;;;;;;;;;;;;;;-1.29;100.00;101934.59;5055666;28;19927;-74
2023/12/07 07:28:17;;;;;;;;;;;;;;;-1.43;100.00;101938.09;5047524;28;20303;-74
2023/12/07 07:30:43;;;;;;;;;;;;;;;-1.32;100.00;101943.78;5073770;28;20376;-74
2023/12/07 07:33:08;;;;;;;;;;;;;;;-1.24;100.00;101937.38;5073888;28;19916;-74
2023/12/07 07:35:34;;;;;;;;;;;;;;;-1.29;100.00;101944.00;5073931;28;19999;-73
2023/12/07 07:37:59;;;;;;;;;;;;;;;-1.31;100.00;101951.59;5074011;28;19920;-73
2023/12/07 07:40:24;;;;;;;;;;;;;;;-1.08;100.00;101959.69;5053012;28;19931;-73
2023/12/07 07:42:49;;;;;;;;;;;;;;;-1.31;100.00;101955.88;5053573;28;19931;-74
2023/12/07 07:45:16;;;;;;;;;;;;;;;-1.35;100.00;101951.34;5056601;28;19935;-73
2023/12/07 07:47:41;;;;;;;;;;;;;;;-1.26;100.00;101962.16;5056637;28;20352;-74
2023/12/07 07:50:06;;;;;;;;;;;;;;;-1.33;100.00;101954.91;5056220;28;19971;-73
2023/12/07 07:52:33;;;;;;;;;;;;;;;-1.22;100.00;101958.97;5056931;28;20011;-73
2023/12/07 07:54:59;;;;;;;;;;;;;;;-1.28;100.00;101956.03;5073835;28;19917;-74
2023/12/07 07:57:24;;;;;;;;;;;;;;;-1.20;100.00;101951.31;5056942;28;19921;-73
2023/12/07 07:59:49;;;;;;;;;;;;;;;-1.17;100.00;101949.78;5057072;28;19916;-73
2023/12/07 08:02:14;;;;;;;;;;;;;;;-1.25;100.00;101954.53;5073620;28;20381;-73
2023/12/07 08:04:40;;;;;;;;;;;;;;;-1.22;100.00;101964.97;5073806;28;19967;-73
2023/12/07 08:07:07;;;;;;;;;;;;;;;-1.02;100.00;101951.41;5056977;28;19948;-74
2023/12/07 08:09:32;;;;;;;;;;;;;;;-1.12;100.00;101953.50;5054110;28;19924;-74
2023/12/07 08:11:58;;;;;;;;;;;;;;;-1.06;100.00;101946.09;5046515;28;19916;-74
2023/12/07 08:14:23;;;;;;;;;;;;;;;-1.08;100.00;101945.16;5056985;28;19921;-73
2023/12/07 08:16:48;;;;;;;;;;;;;;;-1.12;100.00;101945.78;5056555;28;19916;-74
2023/12/07 08:19:14;;;;;;;;;;;;;;;-1.04;100.00;101943.59;5056814;28;20006;-74
2023/12/07 08:21:39;;;;;;;;;;;;;;;-1.10;100.00;101943.28;5056515;28;19923;-74
2023/12/07 08:24:05;;;;;;;;;;;;;;;-0.81;100.00;101937.09;5072908;28;19924;-73
2023/12/07 08:26:31;;;;;;;;;;;;;;;-0.92;100.00;101944.28;5089421;28;19920;-73
2023/12/07 08:28:56;;;;;;;;;;;;;;;-1.00;100.00;101949.81;5076875;28;20393;-74
2023/12/07 08:31:23;;;;;;;;;;;;;;;-0.93;100.00;101949.34;5077305;28;19967;-74
2023/12/07 08:33:48;;;;;;;;;;;;;;;-0.91;100.00;101960.59;5090680;28;20015;-75
2023/12/07 08:36:13;;;;;;;;;;;;;;;-0.86;100.00;101948.84;5073543;28;20014;-75
2023/12/07 08:38:57;;;;;;;;;;;;;;;-0.88;100.00;101942.72;5056652;28;20366;-75
2023/12/07 08:41:23;;;;;;;;;;;;;;;-0.93;100.00;101950.22;5061663;28;19923;-76
2023/12/07 08:43:55;;;;;;;;;;;;;;;-0.87;100.00;101942.81;5055439;28;19931;-75
2023/12/07 08:46:20;;;;;;;;;;;;;;;-0.71;100.00;101938.47;5055971;28;19927;-75
2023/12/07 08:48:45;;;;;;;;;;;;;;;-0.79;100.00;101938.09;5061470;28;19921;-76
2023/12/07 08:51:11;;;;;;;;;;;;;;;-0.68;100.00;101932.59;5072653;28;20034;-76
2023/12/07 08:53:38;;;;;;;;;;;;;;;-0.79;100.00;101934.59;5073574;28;19916;-77
2023/12/07 08:56:04;;;;;;;;;;;;;;;-0.71;100.00;101939.34;5073663;28;19954;-77
2023/12/07 08:58:29;;;;;;;;;;;;;;;-0.70;100.00;101946.25;5055679;28;19978;-77
2023/12/07 09:00:55;;;;;;;;;;;;;;;-0.72;100.00;101939.25;5088344;28;19920;-75
2023/12/07 09:03:20;;;;;;;;;;;;;;;-0.73;100.00;101940.09;5072469;28;19936;-76
2023/12/07 09:05:45;;;;;;;;;;;;;;;-0.70;100.00;101940.25;5072398;28;20271;-76
2023/12/07 09:08:11;;;;;;;;;;;;;;;-0.65;100.00;101938.78;5072372;28;19921;-75
2023/12/07 09:10:36;;;;;;;;;;;;;;;-0.60;100.00;101936.47;5071945;28;19924;-76
2023/12/07 09:13:02;;;;;;;;;;;;;;;-0.48;100.00;101937.06;5089720;28;20225;-75
2023/12/07 09:15:28;;;;;;;;;;;;;;;-0.50;100.00;101941.28;5089007;28;20390;-75
2023/12/07 09:17:53;;;;;;;;;;;;;;;-0.53;100.00;101931.69;5089301;28;19958;-75
2023/12/07 09:20:18;;;;;;;;;;;;;;;-0.53;100.00;101928.25;5089437;28;19923;-75
2023/12/07 09:22:44;;;;;;;;;;;;;;;-0.49;100.00;101925.00;5072820;28;19917;-76
2023/12/07 09:25:10;;;;;;;;;;;;;;;-0.53;100.00;101929.13;5088904;28;19955;-75
2023/12/07 09:27:37;;;;;;;;;;;;;;;-0.41;100.00;101939.16;5068810;28;19927;-75
2023/12/07 09:30:07;;;;;;;;;;;;;;;-0.42;100.00;101934.78;5071786;28;19920;-75
2023/12/07 09:32:32;;;;;;;;;;;;;;;-0.41;100.00;101934.00;5055080;28;19916;-75
2023/12/07 09:34:57;;;;;;;;;;;;;;;-0.35;100.00;101931.72;5071684;28;20395;-75
2023/12/07 09:37:23;;;;;;;;;;;;;;;-0.22;100.00;101927.19;5071739;28;20277;-76
2023/12/07 09:39:48;;;;;;;;;;;;;;;-0.14;100.00;101931.03;5052121;28;19923;-75
2023/12/07 09:42:15;;;;;;;;;;;;;;;-0.13;100.00;101924.19;5050897;28;19959;-75
2023/12/07 09:44:41;;;;;;;;;;;;;;;-0.13;100.00;101922.53;5070665;28;19921;-74
2023/12/07 09:47:06;;;;;;;;;;;;;;;-0.11;100.00;101920.88;5054253;28;20188;-75
2023/12/07 09:49:31;;;;;;;;;;;;;;;-0.08;100.00;101913.31;5055401;28;20376;-75
2023/12/07 09:51:58;;;;;;;;;;;;;;;-0.14;100.00;101914.69;5072154;28;19973;-76
2023/12/07 09:54:25;;;;;;;;;;;;;;;-0.02;100.00;101907.56;5071792;28;20383;-76
2023/12/07 09:56:53;;;;;;;;;;;;;;;0.16;100.00;101907.59;5072438;28;20356;-76
2023/12/07 09:59:18;;;;;;;;;;;;;;;0.01;100.00;101905.13;5071336;28;19916;-76
2023/12/07 10:01:43;;;;;;;;;;;;;;;0.31;100.00;101900.56;5088017;28;20018;-76
2023/12/07 10:04:23;;;;;;;;;;;;;;;0.15;100.00;101904.09;5054860;28;20369;-75
2023/12/07 10:06:49;;;;;;;;;;;;;;;0.27;100.00;101888.31;5062526;28;20365;-75
2023/12/07 10:09:14;;;;;;;;;;;;;;;0.28;100.00;101889.22;5071350;28;19913;-76
2023/12/07 10:11:40;;;;;;;;;;;;;;;0.42;100.00;101875.28;5070551;28;19917;-76
2023/12/07 10:14:11;;;;;;;;;;;;;;;0.58;100.00;101861.41;5070530;28;19916;-76
2023/12/07 10:16:38;;;;;;;;;;;;;;;0.73;100.00;101856.03;5053623;28;20369;-75
2023/12/07 10:19:21;;;;;;;;;;;;;;;0.80;100.00;101845.16;5069479;28;20016;-75
2023/12/07 10:21:50;;;;;;;;;;;;;;;1.32;100.00;101843.97;5087632;28;19919;-75
2023/12/07 10:24:16;;;;;;;;;;;;;;;2.06;100.00;101849.53;5077511;28;19927;-75
2023/12/07 10:26:42;;;;;;;;;;;;;;;2.66;100.00;101834.53;5071853;28;19924;-75
2023/12/07 10:29:09;;;;;;;;;;;;;;;3.40;100.00;101838.00;5071202;28;20274;-76
2023/12/07 10:31:36;;;;;;;;;;;;;;;4.38;100.00;101828.94;5071596;28;20301;-76
2023/12/07 10:34:01;;;;;;;;;;;;;;;4.94;100.00;101831.44;5070914;28;19923;-76
2023/12/07 10:36:27;;;;;;;;;;;;;;;4.76;100.00;101825.72;5054531;28;19921;-76
2023/12/07 10:38:54;;;;;;;;;;;;;;;4.46;100.00;101821.41;5071073;28;19927;-76
2023/12/07 10:41:20;;;;;;;;;;;;;;;4.55;100.00;101813.88;5087670;28;19920;-76
2023/12/07 10:43:48;;;;;;;;;;;;;;;4.68;100.00;101820.28;5070622;28;20377;-76
2023/12/07 10:46:16;;;;;;;;;;;;;;;4.41;100.00;101812.59;5070152;28;19920;-76
2023/12/07 10:48:44;;;;;;;;;;;;;;;4.09;100.00;101805.63;5052346;28;19913;-76
2023/12/07 10:51:11;;;;;;;;;;;;;;;4.40;100.00;101806.53;5050884;28;19913;-76
2023/12/07 10:53:43;;;;;;;;;;;;;;;4.99;100.00;101808.16;5051211;28;20022;-76
2023/12/07 10:56:15;;;;;;;;;;;;;;;4.91;100.00;101797.56;5050374;28;19913;-76
2023/12/07 10:58:41;;;;;;;;;;;;;;;4.67;100.00;101797.78;5053037;28;19924;-76
2023/12/07 11:01:07;;;;;;;;;;;;;;;5.11;100.00;101805.88;5070931;28;20124;-76
2023/12/07 11:03:34;;;;;;;;;;;;;;;5.78;100.00;101798.00;5071140;28;19966;-75
2023/12/07 11:06:01;;;;;;;;;;;;;;;6.35;97.10;101783.69;5070990;28;19920;-76
2023/12/07 11:08:45;;;;;;;;;;;;;;;6.47;96.90;101783.03;5054573;28;19917;-76
2023/12/07 11:11:25;;;;;;;;;;;;;;;6.64;94.51;101787.69;5053749;28;20299;-76
2023/12/07 11:13:58;;;;;;;;;;;;;;;6.50;93.67;101784.84;5070865;28;20311;-75
2023/12/07 11:16:35;;;;;;;;;;;;;;;6.41;94.44;101777.72;5070672;28;19917;-76
2023/12/07 11:19:01;;;;;;;;;;;;;;;5.88;95.55;101781.75;5071359;28;20265;-76
2023/12/07 11:21:26;;;;;;;;;;;;;;;5.83;97.61;101775.59;5069842;28;19961;-75
2023/12/07 11:23:52;;;;;;;;;;;;;;;5.46;96.80;101760.81;5070474;28;19966;-75
2023/12/07 11:26:24;;;;;;;;;;;;;;;5.49;99.07;101753.13;5069920;28;19927;-75
2023/12/07 11:28:50;;;;;;;;;;;;;;;5.74;97.73;101741.56;5086778;28;19925;-75
2023/12/07 11:31:15;;;;;;;;;;;;;;;5.77;96.36;101740.75;5070817;28;20301;-75
2023/12/07 11:33:41;;;;;;;;;;;;;;;5.70;96.38;101740.63;5070696;28;19920;-75
2023/12/07 11:36:10;;;;;;;;;;;;;;;5.71;96.93;101734.56;5070086;28;20364;-76
2023/12/07 11:38:59;;;;;;;;;;;;;;;6.09;95.11;101732.78;5087281;28;19955;-76
2023/12/07 11:41:28;;;;;;;;;;;;;;;6.42;95.54;101727.38;5069735;28;20054;-76
2023/12/07 11:43:58;;;;;;;;;;;;;;;6.80;94.16;101723.78;5070033;28;20062;-77
2023/12/07 11:46:24;;;;;;;;;;;;;;;7.08;92.47;101715.56;5069956;28;20005;-76
2023/12/07 11:48:49;;;;;;;;;;;;;;;7.44;89.85;101708.28;5087359;28;19917;-76
2023/12/07 11:51:15;;;;;;;;;;;;;;;7.45;90.88;101712.66;5085135;28;19932;-76
2023/12/07 11:53:41;;;;;;;;;;;;;;;7.54;91.06;101701.50;5063197;28;19936;-76
2023/12/07 11:56:07;;;;;;;;;;;;;;;7.66;87.55;101706.00;5069904;28;19916;-76
2023/12/07 11:58:34;;;;;;;;;;;;;;;7.98;87.72;101701.22;5053339;28;19951;-76
2023/12/07 12:01:00;;;;;;;;;;;;;;;8.54;85.48;101702.78;5082317;28;19963;-76
2023/12/07 12:03:27;;;;;;;;;;;;;;;8.97;85.20;101703.19;5068460;28;19951;-76
2023/12/07 12:05:52;;;;;;;;;;;;;;;9.33;84.16;101699.09;5087213;28;20395;-76
2023/12/07 12:08:18;;;;;;;;;;;;;;;9.63;82.35;101689.72;5070922;28;20023;-76
2023/12/07 12:10:44;;;;;;;;;;;;;;;10.02;80.68;101685.53;5056872;28;20007;-76
2023/12/07 12:13:09;;;;;;;;;;;;;;;10.14;79.81;101684.72;5047943;28;20008;-76
2023/12/07 12:15:34;;;;;;;;;;;;;;;9.76;77.85;101681.94;5056724;28;19920;-76
2023/12/07 12:18:00;;;;;;;;;;;;;;;9.14;78.54;101681.53;5073939;28;19928;-76
2023/12/07 12:20:25;;;;;;;;;;;;;;;8.32;82.38;101678.13;5073521;28;20401;-76
2023/12/07 12:22:55;;;;;;;;;;;;;;;7.44;83.29;101669.19;5057080;28;20025;-76
2023/12/07 12:25:22;;;;;;;;;;;;;;;6.81;87.58;101666.47;5062249;28;20404;-76